createdAt,value
2017-08-01T00:01:53.944Z,20.20
2017-08-01T00:04:21.637Z,20.20
2017-08-01T00:06:49.129Z,20.20
2017-08-01T00:09:17.369Z,20.00
2017-08-01T00:11:44.842Z,20.00
2017-08-01T00:14:12.345Z,20.00
2017-08-01T00:16:39.817Z,20.10
2017-08-01T00:19:07.289Z,20.10
2017-08-01T00:21:35.045Z,20.10
2017-08-01T00:24:02.513Z,20.10
2017-08-01T00:26:29.980Z,20.10
2017-08-01T00:28:57.472Z,20.10
2017-08-01T00:31:24.945Z,20.00
2017-08-01T00:33:52.417Z,19.90
2017-08-01T00:36:19.982Z,19.90
2017-08-01T00:38:47.453Z,19.80
2017-08-01T00:41:14.924Z,19.70
2017-08-01T00:43:42.420Z,19.80
2017-08-01T00:46:10.666Z,19.60
2017-08-01T00:48:38.137Z,19.60
2017-08-01T00:51:05.634Z,19.60
2017-08-01T00:53:33.109Z,19.50
2017-08-01T00:56:00.581Z,19.50
2017-08-01T00:58:28.073Z,19.50
2017-08-01T01:00:56.322Z,19.50
2017-08-01T01:03:23.793Z,19.50
2017-08-01T01:05:51.298Z,19.50
2017-08-01T01:08:18.768Z,19.40
2017-08-01T01:10:46.238Z,19.30
2017-08-01T01:13:13.728Z,19.30
2017-08-01T01:15:41.231Z,19.30
2017-08-01T01:18:08.702Z,19.30
2017-08-01T01:20:36.192Z,19.40
2017-08-01T01:23:03.665Z,19.40
2017-08-01T01:25:31.905Z,19.40
2017-08-01T01:27:59.393Z,19.40
2017-08-01T01:30:27.629Z,19.20
2017-08-01T01:32:55.101Z,19.20
2017-08-01T01:35:22.601Z,19.20
2017-08-01T01:37:50.078Z,19.10
2017-08-01T01:40:17.549Z,19.10
2017-08-01T01:42:45.036Z,19.10
2017-08-01T01:45:12.508Z,18.90
2017-08-01T01:47:40.745Z,18.80
2017-08-01T01:50:08.242Z,18.80
2017-08-01T01:52:36.480Z,18.80
2017-08-01T01:55:03.953Z,18.80
2017-08-01T01:57:31.452Z,18.80
2017-08-01T01:59:59.544Z,19.00
2017-08-01T02:02:27.050Z,19.10
2017-08-01T02:04:54.769Z,19.20
2017-08-01T02:07:22.245Z,19.10
2017-08-01T02:09:49.729Z,19.00
2017-08-01T02:12:17.231Z,19.10
2017-08-01T02:14:44.705Z,19.10
2017-08-01T02:17:12.177Z,19.10
2017-08-01T02:19:39.673Z,19.20
2017-08-01T02:22:07.917Z,19.20
2017-08-01T02:24:35.392Z,19.20
2017-08-01T02:27:02.891Z,19.20
2017-08-01T02:29:30.380Z,19.30
2017-08-01T02:31:57.854Z,19.30
2017-08-01T02:34:25.358Z,19.20
2017-08-01T02:36:52.870Z,19.20
2017-08-01T02:39:20.340Z,19.10
2017-08-01T02:41:48.601Z,19.00
2017-08-01T02:44:16.081Z,18.90
2017-08-01T02:46:44.320Z,19.10
2017-08-01T02:49:11.813Z,19.00
2017-08-01T02:51:40.050Z,18.90
2017-08-01T02:54:07.518Z,18.90
2017-08-01T02:56:35.009Z,18.90
2017-08-01T02:59:03.249Z,18.80
2017-08-01T03:01:30.949Z,18.80
2017-08-01T03:03:58.587Z,18.90
2017-08-01T03:06:26.128Z,18.90
2017-08-01T03:08:53.605Z,18.90
2017-08-01T03:11:21.130Z,18.90
2017-08-01T03:13:48.605Z,18.90
2017-08-01T03:16:16.073Z,18.90
2017-08-01T03:18:43.790Z,18.90
2017-08-01T03:21:11.280Z,18.90
2017-08-01T03:23:38.757Z,18.90
2017-08-01T03:26:07.033Z,18.90
2017-08-01T03:28:35.351Z,18.90
2017-08-01T03:31:02.821Z,18.90
2017-08-01T03:33:30.312Z,18.90
2017-08-01T03:35:57.783Z,18.90
2017-08-01T03:38:26.309Z,18.80
2017-08-01T03:40:53.801Z,18.80
2017-08-01T03:43:21.277Z,18.80
2017-08-01T03:45:49.628Z,18.70
2017-08-01T03:48:17.128Z,18.70
2017-08-01T03:50:44.927Z,18.60
2017-08-01T03:53:12.406Z,18.60
2017-08-01T03:55:40.145Z,18.60
2017-08-01T03:58:07.618Z,18.60
2017-08-01T04:00:35.095Z,18.70
2017-08-01T04:03:02.589Z,18.70
2017-08-01T04:05:30.386Z,18.70
2017-08-01T04:07:58.200Z,18.90
2017-08-01T04:10:26.465Z,18.90
2017-08-01T04:12:53.941Z,18.90
2017-08-01T04:15:22.212Z,19.00
2017-08-01T04:17:50.733Z,19.00
2017-08-01T04:20:18.209Z,19.00
2017-08-01T04:22:45.681Z,19.00
2017-08-01T04:25:13.225Z,19.10
2017-08-01T04:27:40.701Z,19.00
2017-08-01T04:30:08.177Z,19.00
2017-08-01T04:32:36.449Z,19.20
2017-08-01T04:35:05.029Z,19.20
2017-08-01T04:37:33.314Z,19.30
2017-08-01T04:40:01.572Z,19.40
2017-08-01T04:42:29.082Z,19.30
2017-08-01T04:45:04.306Z,19.40
2017-08-01T04:47:31.825Z,19.50
2017-08-01T04:49:59.302Z,19.50
2017-08-01T04:52:26.821Z,19.60
2017-08-01T04:54:54.292Z,19.40
2017-08-01T04:57:21.769Z,19.20
2017-08-01T04:59:50.075Z,19.20
2017-08-01T05:02:17.553Z,19.20
2017-08-01T05:04:45.040Z,19.30
2017-08-01T05:07:12.534Z,19.50
2017-08-01T05:09:40.014Z,19.90
2017-08-01T05:12:07.484Z,20.30
2017-08-01T05:14:35.297Z,20.50
2017-08-01T05:17:03.549Z,20.80
2017-08-01T05:19:31.077Z,20.80
2017-08-01T05:21:58.569Z,21.00
2017-08-01T05:24:26.826Z,21.20
2017-08-01T05:26:54.297Z,21.20
2017-08-01T05:29:21.796Z,21.10
2017-08-01T05:31:49.271Z,21.10
2017-08-01T05:34:16.744Z,21.00
2017-08-01T05:36:44.241Z,21.10
2017-08-01T05:39:11.713Z,21.10
2017-08-01T05:41:39.949Z,21.40
2017-08-01T05:44:07.445Z,21.40
2017-08-01T05:46:35.715Z,21.50
2017-08-01T05:49:04.238Z,21.90
2017-08-01T05:51:31.957Z,21.90
2017-08-01T05:54:01.410Z,22.20
2017-08-01T05:56:28.970Z,22.20
2017-08-01T05:58:57.561Z,22.20
2017-08-01T06:01:25.134Z,22.10
2017-08-01T06:03:52.608Z,22.10
2017-08-01T06:06:20.101Z,22.10
2017-08-01T06:08:47.569Z,22.10
2017-08-01T06:11:15.037Z,22.10
2017-08-01T06:13:42.533Z,22.00
2017-08-01T06:16:10.010Z,21.90
2017-08-01T06:18:38.305Z,22.00
2017-08-01T06:21:06.097Z,21.90
2017-08-01T06:23:33.570Z,22.00
2017-08-01T06:26:01.121Z,22.10
2017-08-01T06:28:28.617Z,22.20
2017-08-01T06:30:56.849Z,22.40
2017-08-01T06:33:24.325Z,22.40
2017-08-01T06:35:51.885Z,22.50
2017-08-01T06:38:19.356Z,22.70
2017-08-01T06:40:46.825Z,22.70
2017-08-01T06:43:15.092Z,23.40
2017-08-01T06:45:43.329Z,23.60
2017-08-01T06:48:10.800Z,23.60
2017-08-01T06:50:38.293Z,23.70
2017-08-01T06:53:06.817Z,24.30
2017-08-01T06:55:34.582Z,24.30
2017-08-01T06:58:02.393Z,24.90
2017-08-01T07:00:30.630Z,25.40
2017-08-01T07:02:58.101Z,25.40
2017-08-01T07:05:25.598Z,25.90
2017-08-01T07:07:53.077Z,26.30
2017-08-01T07:10:20.557Z,26.20
2017-08-01T07:12:48.049Z,26.00
2017-08-01T07:15:15.517Z,25.90
2017-08-01T07:17:43.765Z,26.30
2017-08-01T07:20:11.261Z,26.20
2017-08-01T07:22:38.734Z,26.00
2017-08-01T07:25:06.245Z,25.40
2017-08-01T07:27:33.737Z,25.60
2017-08-01T07:30:01.211Z,25.90
2017-08-01T07:32:28.681Z,25.90
2017-08-01T07:34:56.171Z,25.80
2017-08-01T07:37:23.659Z,26.20
2017-08-01T07:39:51.141Z,26.60
2017-08-01T07:42:18.641Z,26.90
2017-08-01T07:44:46.109Z,27.10
2017-08-01T07:47:13.881Z,27.40
2017-08-01T07:49:42.146Z,27.60
2017-08-01T07:52:09.618Z,27.60
2017-08-01T07:54:37.861Z,27.30
2017-08-01T07:57:05.353Z,27.30
2017-08-01T07:59:33.589Z,27.90
2017-08-01T08:02:01.152Z,27.80
2017-08-01T08:04:28.887Z,27.80
2017-08-01T08:06:56.369Z,28.30
2017-08-01T08:09:24.117Z,29.00
2017-08-01T08:11:51.621Z,29.40
2017-08-01T08:14:19.872Z,29.20
2017-08-01T08:16:47.344Z,29.20
2017-08-01T08:19:15.876Z,29.40
2017-08-01T08:21:43.346Z,29.30
2017-08-01T08:24:10.817Z,29.70
2017-08-01T08:26:38.308Z,29.70
2017-08-01T08:29:06.593Z,29.80
2017-08-01T08:31:34.067Z,29.70
2017-08-01T08:34:01.561Z,29.60
2017-08-01T08:36:29.192Z,29.30
2017-08-01T08:38:56.664Z,29.20
2017-08-01T08:41:24.208Z,29.30
2017-08-01T08:43:51.981Z,29.60
2017-08-01T08:46:19.448Z,29.30
2017-08-01T08:48:46.945Z,29.50
2017-08-01T08:51:15.186Z,29.80
2017-08-01T08:53:42.658Z,29.70
2017-08-01T08:56:10.167Z,30.40
2017-08-01T08:58:37.637Z,30.30
2017-08-01T09:01:05.539Z,29.60
2017-08-01T09:03:33.828Z,29.80
2017-08-01T09:06:01.565Z,29.80
2017-08-01T09:08:29.033Z,30.10
2017-08-01T09:10:56.526Z,30.20
2017-08-01T09:13:24.000Z,30.40
2017-08-01T09:15:51.594Z,29.70
2017-08-01T09:18:19.086Z,29.90
2017-08-01T09:20:47.326Z,30.70
2017-08-01T09:23:14.803Z,30.70
2017-08-01T09:25:43.088Z,31.80
2017-08-01T09:28:10.561Z,31.80
2017-08-01T09:30:38.109Z,31.80
2017-08-01T09:33:06.369Z,32.20
2017-08-01T09:35:33.841Z,32.10
2017-08-01T09:38:02.093Z,33.00
2017-08-01T09:40:29.589Z,33.00
2017-08-01T09:42:57.061Z,33.30
2017-08-01T09:45:24.529Z,32.70
2017-08-01T09:47:52.017Z,32.50
2017-08-01T09:50:19.486Z,33.40
2017-08-01T09:52:46.953Z,34.20
2017-08-01T09:55:15.274Z,34.40
2017-08-01T09:57:42.928Z,34.40
2017-08-01T10:00:10.509Z,34.60
2017-08-01T10:02:38.001Z,34.90
2017-08-01T10:05:05.485Z,34.30
2017-08-01T10:07:32.966Z,33.60
2017-08-01T10:10:00.457Z,33.70
2017-08-01T10:12:27.931Z,34.50
2017-08-01T10:14:55.424Z,34.60
2017-08-01T10:17:22.919Z,34.80
2017-08-01T10:19:50.401Z,35.50
2017-08-01T10:22:17.889Z,34.70
2017-08-01T10:24:45.846Z,34.30
2017-08-01T10:27:16.667Z,33.70
2017-08-01T10:29:46.247Z,33.60
2017-08-01T10:32:15.549Z,34.60
2017-08-01T10:34:48.546Z,35.50
2017-08-01T10:37:19.232Z,35.50
2017-08-01T10:39:47.140Z,35.80
2017-08-01T10:42:14.612Z,34.90
2017-08-01T10:44:42.081Z,34.60
2017-08-01T10:47:10.358Z,34.80
2017-08-01T10:49:38.595Z,35.00
2017-08-01T10:52:06.141Z,34.90
2017-08-01T10:54:34.054Z,35.30
2017-08-01T10:57:02.296Z,35.30
2017-08-01T10:59:29.777Z,35.30
2017-08-01T11:01:57.273Z,36.00
2017-08-01T11:04:24.749Z,35.90
2017-08-01T11:06:52.220Z,35.80
2017-08-01T11:09:19.725Z,36.40
2017-08-01T11:11:47.201Z,36.50
2017-08-01T11:14:14.675Z,35.90
2017-08-01T11:16:42.169Z,35.90
2017-08-01T11:19:09.642Z,35.90
2017-08-01T11:21:37.124Z,35.20
2017-08-01T11:24:04.612Z,35.50
2017-08-01T11:26:32.081Z,35.70
2017-08-01T11:28:59.549Z,36.50
2017-08-01T11:31:27.053Z,37.00
2017-08-01T11:33:54.524Z,36.90
2017-08-01T11:36:21.998Z,36.30
2017-08-01T11:38:49.500Z,36.60
2017-08-01T11:41:17.739Z,37.30
2017-08-01T11:43:45.208Z,37.20
2017-08-01T11:46:12.710Z,36.90
2017-08-01T11:48:40.185Z,36.10
2017-08-01T11:51:07.657Z,35.30
2017-08-01T11:53:35.535Z,35.10
2017-08-01T11:56:03.157Z,34.40
2017-08-01T11:58:31.434Z,34.00
2017-08-01T12:01:00.180Z,34.60
2017-08-01T12:03:28.917Z,35.60
2017-08-01T12:05:57.192Z,36.40
2017-08-01T12:08:25.514Z,36.90
2017-08-01T12:10:52.981Z,36.80
2017-08-01T12:13:20.448Z,37.20
2017-08-01T12:15:48.701Z,37.50
2017-08-01T12:18:16.176Z,37.50
2017-08-01T12:20:44.418Z,37.20
2017-08-01T12:23:11.913Z,37.20
2017-08-01T12:25:40.149Z,38.00
2017-08-01T12:28:07.621Z,37.80
2017-08-01T12:30:35.114Z,38.20
2017-08-01T12:33:02.591Z,38.40
2017-08-01T12:35:30.065Z,38.40
2017-08-01T12:37:57.646Z,38.30
2017-08-01T12:40:25.112Z,38.10
2017-08-01T12:42:52.588Z,38.30
2017-08-01T12:45:21.105Z,38.40
2017-08-01T12:47:48.870Z,38.40
2017-08-01T12:50:16.345Z,38.70
2017-08-01T12:52:44.973Z,39.50
2017-08-01T12:55:13.209Z,39.50
2017-08-01T12:57:40.677Z,39.40
2017-08-01T13:00:08.171Z,39.60
2017-08-01T13:02:35.653Z,39.60
2017-08-01T13:05:03.140Z,38.90
2017-08-01T13:07:30.630Z,38.40
2017-08-01T13:09:58.864Z,38.70
2017-08-01T13:12:27.285Z,38.70
2017-08-01T13:14:55.553Z,38.60
2017-08-01T13:17:23.037Z,38.60
2017-08-01T13:19:50.508Z,38.50
2017-08-01T13:22:18.008Z,38.20
2017-08-01T13:24:45.480Z,37.80
2017-08-01T13:27:12.955Z,37.50
2017-08-01T13:29:40.445Z,36.80
2017-08-01T13:32:07.917Z,36.30
2017-08-01T13:34:35.409Z,35.60
2017-08-01T13:37:03.668Z,35.10
2017-08-01T13:39:31.137Z,35.00
2017-08-01T13:41:58.848Z,34.90
2017-08-01T13:44:26.508Z,34.90
2017-08-01T13:46:53.980Z,35.10
2017-08-01T13:49:21.453Z,35.10
2017-08-01T13:51:48.944Z,34.90
2017-08-01T13:54:16.417Z,34.90
2017-08-01T13:56:43.884Z,34.80
2017-08-01T13:59:11.821Z,34.60
2017-08-01T14:01:40.060Z,34.40
2017-08-01T14:04:07.554Z,34.40
2017-08-01T14:06:35.825Z,34.00
2017-08-01T14:09:04.061Z,33.60
2017-08-01T14:11:31.533Z,33.60
2017-08-01T14:13:59.025Z,32.90
2017-08-01T14:16:27.266Z,32.40
2017-08-01T14:18:54.739Z,32.30
2017-08-01T14:21:22.233Z,32.50
2017-08-01T14:23:49.913Z,32.70
2017-08-01T14:26:17.390Z,33.00
2017-08-01T14:28:44.881Z,33.30
2017-08-01T14:31:13.117Z,33.50
2017-08-01T14:33:40.585Z,33.40
2017-08-01T14:36:08.089Z,33.10
2017-08-01T14:38:35.556Z,32.80
2017-08-01T14:41:03.030Z,32.30
2017-08-01T14:43:30.795Z,31.70
2017-08-01T14:45:58.265Z,31.40
2017-08-01T14:48:25.734Z,31.20
2017-08-01T14:50:54.109Z,30.80
2017-08-01T14:53:21.577Z,30.80
2017-08-01T14:55:49.044Z,30.90
2017-08-01T14:58:16.537Z,31.00
2017-08-01T15:00:44.415Z,31.10
2017-08-01T15:03:11.894Z,31.10
2017-08-01T15:05:39.394Z,31.20
2017-08-01T15:08:06.893Z,31.30
2017-08-01T15:10:34.365Z,31.40
2017-08-01T15:13:01.892Z,31.40
2017-08-01T15:15:29.361Z,31.30
2017-08-01T15:17:56.881Z,31.10
2017-08-01T15:20:25.140Z,30.20
2017-08-01T15:22:52.622Z,30.20
2017-08-01T15:25:20.120Z,30.20
2017-08-01T15:27:47.613Z,30.00
2017-08-01T15:30:15.097Z,29.90
2017-08-01T15:32:42.574Z,29.90
2017-08-01T15:35:10.345Z,29.70
2017-08-01T15:37:37.821Z,29.70
2017-08-01T15:40:05.564Z,29.60
2017-08-01T15:42:33.061Z,29.30
2017-08-01T15:45:00.546Z,28.70
2017-08-01T15:47:28.783Z,28.30
2017-08-01T15:49:56.305Z,28.30
2017-08-01T15:52:23.893Z,28.30
2017-08-01T15:54:51.365Z,28.30
2017-08-01T15:57:18.861Z,28.20
2017-08-01T15:59:46.334Z,28.10
2017-08-01T16:02:13.812Z,28.10
2017-08-01T16:04:41.315Z,28.00
2017-08-01T16:07:09.557Z,27.80
2017-08-01T16:09:37.470Z,27.80
2017-08-01T16:12:05.013Z,27.70
2017-08-01T16:14:33.253Z,27.70
2017-08-01T16:17:00.725Z,27.70
2017-08-01T16:19:28.220Z,27.70
2017-08-01T16:21:55.698Z,27.50
2017-08-01T16:24:23.169Z,27.10
2017-08-01T16:26:50.661Z,27.20
2017-08-01T16:29:18.133Z,27.40
2017-08-01T16:31:46.373Z,27.40
2017-08-01T16:34:13.867Z,27.40
2017-08-01T16:36:42.929Z,27.40
2017-08-01T16:39:10.793Z,27.40
2017-08-01T16:41:38.297Z,27.30
2017-08-01T16:44:05.778Z,27.20
2017-08-01T16:46:33.256Z,27.20
2017-08-01T16:49:01.002Z,27.20
2017-08-01T16:51:28.484Z,27.10
2017-08-01T16:53:55.972Z,26.90
2017-08-01T16:56:25.102Z,26.70
2017-08-01T16:58:52.672Z,26.70
2017-08-01T17:01:20.141Z,26.70
2017-08-01T17:03:47.637Z,26.60
2017-08-01T17:06:15.877Z,26.40
2017-08-01T17:08:43.355Z,26.40
2017-08-01T17:11:10.849Z,26.30
2017-08-01T17:13:38.328Z,25.80
2017-08-01T17:16:05.872Z,25.50
2017-08-01T17:18:33.361Z,25.30
2017-08-01T17:21:00.858Z,25.30
2017-08-01T17:23:29.097Z,25.20
2017-08-01T17:25:56.593Z,25.20
2017-08-01T17:28:24.856Z,25.10
2017-08-01T17:30:52.329Z,25.00
2017-08-01T17:33:20.589Z,24.50
2017-08-01T17:35:48.837Z,24.30
2017-08-01T17:38:16.309Z,24.20
2017-08-01T17:40:43.805Z,24.10
2017-08-01T17:43:11.601Z,24.10
2017-08-01T17:45:39.073Z,24.00
2017-08-01T17:48:06.574Z,24.10
2017-08-01T17:50:34.061Z,24.30
2017-08-01T17:53:01.536Z,24.40
2017-08-01T17:55:29.025Z,24.50
2017-08-01T17:57:56.493Z,24.30
2017-08-01T18:00:25.022Z,24.20
2017-08-01T18:02:52.836Z,24.10
2017-08-01T18:05:21.073Z,24.20
2017-08-01T18:07:48.545Z,24.20
2017-08-01T18:10:16.052Z,24.00
2017-08-01T18:12:43.533Z,23.80
2017-08-01T18:15:11.013Z,23.60
2017-08-01T18:17:38.518Z,23.10
2017-08-01T18:20:05.993Z,21.70
2017-08-01T18:22:33.468Z,21.50
2017-08-01T18:25:00.961Z,21.20
2017-08-01T18:27:28.434Z,20.60
2017-08-01T18:29:56.679Z,20.60
2017-08-01T18:32:24.181Z,20.60
2017-08-01T18:34:51.657Z,20.70
2017-08-01T18:37:19.140Z,20.70
2017-08-01T18:39:46.636Z,20.20
2017-08-01T18:42:14.878Z,19.90
2017-08-01T18:44:42.353Z,19.90
2017-08-01T18:47:09.846Z,20.00
2017-08-01T18:49:37.321Z,19.70
2017-08-01T18:52:04.805Z,19.60
2017-08-01T18:54:32.293Z,19.50
2017-08-01T18:57:00.533Z,19.50
2017-08-01T18:59:28.007Z,19.50
2017-08-01T19:01:55.509Z,19.50
2017-08-01T19:04:22.989Z,19.50
2017-08-01T19:06:50.466Z,19.60
2017-08-01T19:09:17.970Z,19.90
2017-08-01T19:11:45.450Z,20.10
2017-08-01T19:14:12.937Z,20.20
2017-08-01T19:16:40.445Z,20.20
2017-08-01T19:19:08.243Z,20.20
2017-08-01T19:21:35.727Z,20.20
2017-08-01T19:24:03.225Z,20.30
2017-08-01T19:26:30.705Z,20.30
2017-08-01T19:28:58.259Z,20.10
2017-08-01T19:31:25.776Z,19.80
2017-08-01T19:33:54.020Z,19.60
2017-08-01T19:36:21.533Z,19.60
2017-08-01T19:38:49.038Z,19.50
2017-08-01T19:41:17.509Z,19.50
2017-08-01T19:43:45.257Z,19.50
2017-08-01T19:46:12.758Z,19.50
2017-08-01T19:48:40.338Z,19.60
2017-08-01T19:51:08.613Z,19.40
2017-08-01T19:53:36.877Z,19.50
2017-08-01T19:56:05.122Z,19.60
2017-08-01T19:58:32.597Z,19.60
2017-08-01T20:01:00.097Z,19.90
2017-08-01T20:03:27.617Z,20.00
2017-08-01T20:05:55.141Z,20.00
2017-08-01T20:08:22.639Z,20.10
2017-08-01T20:10:50.889Z,19.90
2017-08-01T20:13:18.374Z,19.90
2017-08-01T20:15:46.650Z,19.70
2017-08-01T20:18:14.897Z,19.60
2017-08-01T20:20:42.381Z,19.60
2017-08-01T20:23:10.640Z,19.50
2017-08-01T20:25:38.117Z,19.50
2017-08-01T20:28:06.689Z,19.60
2017-08-01T20:30:34.201Z,19.50
2017-08-01T20:33:01.681Z,19.60
2017-08-01T20:35:29.166Z,19.70
2017-08-01T20:37:57.434Z,19.90
2017-08-01T20:40:24.913Z,19.90
2017-08-01T20:42:53.157Z,19.90
2017-08-01T20:45:20.650Z,19.90
2017-08-01T20:47:48.121Z,19.70
2017-08-01T20:50:15.606Z,19.60
2017-08-01T20:52:43.105Z,19.50
2017-08-01T20:55:11.633Z,19.40
2017-08-01T20:57:39.114Z,19.40
2017-08-01T21:00:06.609Z,19.30
2017-08-01T21:02:34.854Z,19.30
2017-08-01T21:05:02.334Z,19.30
2017-08-01T21:07:30.607Z,19.30
2017-08-01T21:09:58.868Z,19.40
2017-08-01T21:12:26.357Z,19.40
2017-08-01T21:14:53.862Z,19.40
2017-08-01T21:17:21.337Z,19.40
2017-08-01T21:19:48.816Z,19.30
2017-08-01T21:22:17.081Z,19.40
2017-08-01T21:24:44.556Z,19.40
2017-08-01T21:27:12.796Z,19.40
2017-08-01T21:29:40.293Z,19.40
2017-08-01T21:32:07.775Z,19.40
2017-08-01T21:34:35.253Z,19.30
2017-08-01T21:37:02.755Z,19.40
2017-08-01T21:39:31.001Z,19.40
2017-08-01T21:41:58.477Z,19.40
2017-08-01T21:44:26.745Z,19.50
2017-08-01T21:46:54.221Z,19.40
2017-08-01T21:49:22.461Z,19.50
2017-08-01T21:51:49.966Z,19.50
2017-08-01T21:54:17.445Z,19.60
2017-08-01T21:56:44.946Z,19.70
2017-08-01T21:59:12.669Z,19.70
2017-08-01T22:01:40.141Z,19.70
2017-08-01T22:04:07.617Z,19.70
2017-08-01T22:06:35.125Z,19.70
2017-08-01T22:09:02.613Z,19.70
2017-08-01T22:11:30.093Z,19.70
2017-08-01T22:13:57.589Z,19.70
2017-08-01T22:16:25.066Z,19.80
2017-08-01T22:18:52.541Z,19.80
2017-08-01T22:21:20.041Z,19.80
2017-08-01T22:23:48.285Z,19.70
2017-08-01T22:26:16.122Z,19.70
2017-08-01T22:28:43.630Z,19.70
2017-08-01T22:31:11.109Z,19.60
2017-08-01T22:33:39.351Z,19.60
2017-08-01T22:36:06.844Z,19.60
2017-08-01T22:38:34.323Z,19.60
2017-08-01T22:41:01.804Z,19.70
2017-08-01T22:43:29.301Z,19.80
2017-08-01T22:45:56.810Z,19.80
2017-08-01T22:48:24.307Z,19.80
2017-08-01T22:50:51.806Z,19.80
2017-08-01T22:53:19.282Z,19.80
2017-08-01T22:55:46.776Z,19.80
2017-08-01T22:58:15.054Z,19.70
2017-08-01T23:00:42.529Z,19.60
2017-08-01T23:03:10.769Z,19.80
2017-08-01T23:05:38.269Z,19.80
2017-08-01T23:08:05.747Z,19.80
2017-08-01T23:10:33.233Z,19.70
2017-08-01T23:13:00.725Z,19.70
2017-08-01T23:15:28.973Z,19.50
2017-08-01T23:17:56.444Z,19.50
2017-08-01T23:20:24.040Z,19.60
2017-08-01T23:22:53.895Z,19.70
2017-08-01T23:25:21.485Z,19.70
2017-08-01T23:27:49.753Z,19.50
2017-08-01T23:30:17.229Z,19.50
2017-08-01T23:32:45.746Z,19.40
2017-08-01T23:35:13.242Z,19.40
2017-08-01T23:37:40.717Z,19.40
2017-08-01T23:40:08.957Z,19.40
2017-08-01T23:42:36.449Z,19.30
2017-08-01T23:45:04.734Z,19.40
2017-08-01T23:47:33.254Z,19.30
2017-08-01T23:50:00.753Z,19.30
2017-08-01T23:52:28.229Z,19.30
2017-08-01T23:54:56.469Z,19.50
2017-08-01T23:57:24.274Z,19.40
2017-08-01T23:59:51.754Z,19.60
